Flight Track Log - Related Links

Times and Time Zones

All times are in EDT time to prevent confusion due to time zone crossing. See the SWA864 flight status page for this flight to view local times or setup timezone preferences in your user account.

Time Position Orientation Groundspeed Altitude Reporting Facility
EDT Latitude Longitude Course Direction KTS MPH feet Rate Location/Type
Sat 04:30:13 PM 29.4942 -98.4050 119° Southeast 213 245 4,100  Level Houston Center
Sat 04:30:58 PM 29.5172 -98.3531 63° Northeast 235 270 5,600 2,916 Climbing Houston Center
Sat 04:32:00 PM 29.5525 -98.2611 66° East 294 338 9,300 3,073 Climbing Houston Center
Sat 04:33:01 PM 29.5892 -98.1683 66° East 325 374 11,900 2,927 Climbing Houston Center
Sat 04:34:03 PM 29.6314 -98.0650 65° Northeast 354 407 15,300 3,024 Climbing Houston Center
Sat 04:35:04 PM 29.6517 -97.9403 79° East 375 432 18,100 2,000 Climbing Houston Center
Sat 04:36:06 PM 29.6544 -97.8153 89° East 388 447 19,400 1,742 Climbing Houston Center
Sat 04:37:08 PM 29.6553 -97.6878 90° East 399 459 21,700 2,098 Climbing Houston Center
Sat 04:38:09 PM 29.6561 -97.5533 90° East 415 478 23,700 2,098 Climbing Houston Center
Sat 04:39:11 PM 29.6569 -97.4133 90° East 435 501 26,000 2,098 Climbing Houston Center
Sat 04:40:12 PM 29.6406 -97.2725 98° East 441 507 28,000 1,659 Climbing Houston Center
Sat 04:41:14 PM 29.6267 -97.1269 96° East 454 522 29,400 1,258 Climbing Houston Center
Sat 04:42:16 PM 29.6114 -96.9731 96° East 475 547 30,600 1,561 Climbing Houston Center
Sat 04:43:17 PM 29.5950 -96.8156 97° East 488 562 32,600 2,049 Climbing Houston Center
Sat 04:44:19 PM 29.5792 -96.6625 97° East 478 550 34,800 1,790 Climbing Houston Center
Sat 04:45:21 PM 29.5625 -96.5142 97° East 468 539 36,300 1,073 Climbing Houston Center
Sat 04:46:22 PM 29.5436 -96.3364 97° East 467 537 37,000 878 Climbing Houston Center
Sat 04:47:24 PM 29.5272 -96.1850 97° East 476 548 38,100 976 Climbing Houston Center
Sat 04:48:25 PM 29.5108 -96.0372 97° East 468 539 39,000 439 Climbing Houston Center
Sat 04:49:27 PM 29.4967 -95.9072 97° East 468 539 39,000  Level Houston Center
Sat 04:50:29 PM 29.4761 -95.7297 98° East 470 541 39,000  Level Houston Center
Sat 04:51:30 PM 29.4606 -95.5822 97° East 470 541 39,000  Level Houston Center
Sat 04:52:32 PM 29.4433 -95.4339 98° East 474 545 39,000  Level Houston Center
Sat 04:53:34 PM 29.4250 -95.2861 98° East 475 547 39,000  Level Houston Center
Sat 04:54:35 PM 29.4081 -95.1378 97° East 478 550 39,000  Level Houston Center
Sat 04:55:37 PM 29.3883 -94.9603 97° East 472 543 39,000  Level Houston Center
Sat 04:56:39 PM 29.3714 -94.8125 97° East 472 543 39,000  Level Houston Center
Sat 04:57:40 PM 29.3542 -94.6650 98° East 471 542 39,000  Level Houston Center
Sat 04:58:42 PM 29.3364 -94.5161 98° East 473 544 39,000  Level Houston Center
Sat 04:59:44 PM 29.3194 -94.3681 97° East 472 543 39,000  Level Houston Center
Sat 05:00:45 PM 29.3003 -94.2175 98° East 476 548 39,000  Level Houston Center
Sat 05:01:47 PM 29.2786 -94.0369 98° East 479 551 39,000  Level Houston Center
Sat 05:02:49 PM 29.2594 -93.8878 98° East 475 547 39,000  Level Houston Center
Sat 05:03:50 PM 29.2419 -93.7481 98° East 476 548 39,000  Level Houston Center
Sat 05:04:52 PM 29.2231 -93.5989 98° East 475 547 39,000  Level Houston Center
Sat 05:05:54 PM 29.1989 -93.4219 99° East 474 545 39,000  Level Houston Center
Sat 05:06:55 PM 29.1803 -93.2739 98° East 473 544 39,000  Level Houston Center
Sat 05:07:57 PM 29.1611 -93.1256 98° East 473 544 39,000  Level Houston Center
Sat 05:08:58 PM 29.1422 -92.9769 98° East 475 547 39,000  Level Houston Center
Sat 05:10:00 PM 29.1217 -92.8278 99° East 477 549 39,000  Level Houston Center
Sat 05:11:02 PM 29.1022 -92.6781 98° East 479 551 39,000  Level Houston Center
Sat 05:12:03 PM 29.0814 -92.5283 99° East 479 551 39,000  Level Houston Center
Sat 05:13:05 PM 29.0564 -92.3478 99° East 481 554 39,000  Level Houston Center
Sat 05:14:07 PM 29.0356 -92.1969 99° East 483 556 39,000  Level Houston Center
Sat 05:15:08 PM 29.0153 -92.0472 99° East 480 552 39,000  Level Houston Center
Sat 05:16:10 PM 28.9936 -91.8975 99° East 480 552 39,000  Level Houston Center
Sat 05:17:12 PM 28.9728 -91.7478 99° East 477 549 39,000  Level Houston Center
Sat 05:18:13 PM 28.9503 -91.5972 100° East 479 551 39,000  Level Houston Center
Sat 05:19:15 PM 28.9294 -91.4467 99° East 482 555 39,000  Level Houston Center
Sat 05:20:16 PM 28.9033 -91.2650 99° East 485 558 39,000  Level Houston Center
Sat 05:21:18 PM 28.8803 -91.1147 100° East 484 557 39,000  Level Houston Center
Sat 05:22:20 PM 28.8589 -90.9633 99° East 485 558 39,000  Level Houston Center
Sat 05:23:21 PM 28.8361 -90.8108 100° East 488 562 39,000  Level Houston Center
Sat 05:24:23 PM 28.8142 -90.6606 99° East 487 560 39,000  Level Houston Center
Sat 05:25:24 PM 28.7911 -90.5103 100° East 485 558 39,000  Level Houston Center
Sat 05:26:26 PM 28.7672 -90.3578 100° East 487 560 39,000  Level Houston Center
Sat 05:27:27 PM 28.7389 -90.1758 100° East 489 563 39,000  Level Houston Center
Sat 05:28:29 PM 28.7153 -90.0242 100° East 488 562 39,000  Level Houston Center
Sat 05:29:30 PM 28.6919 -89.8739 100° East 488 562 39,000  Level Houston Center
Sat 05:30:32 PM 28.6681 -89.7214 100° East 489 563 39,000  Level Houston Center
Sat 05:31:34 PM 28.6433 -89.5694 100° East 490 564 39,000  Level Houston Center
Sat 05:32:35 PM 28.6197 -89.4167 100° East 491 565 39,000  Level Houston Center
Sat 05:33:37 PM 28.5958 -89.2658 100° East 487 560 39,000  Level Houston Center
Sat 05:34:38 PM 28.5658 -89.0842 101° East 486 559 39,000  Level Houston Center
Sat 05:35:40 PM 28.5408 -88.9339 101° East 487 560 39,000  Level Houston Center
Sat 05:36:41 PM 28.5169 -88.7839 100° East 484 557 39,000  Level Houston Center
Sat 05:37:43 PM 28.4914 -88.6342 101° East 483 556 39,000  Level Houston Center
Sat 05:38:44 PM 28.4664 -88.4839 101° East 485 558 39,000  Level Houston Center
Sat 05:39:46 PM 28.4419 -88.3347 101° East 483 556 39,000  Level Houston Center
Sat 05:40:48 PM 28.4158 -88.1864 101° East 480 552 39,000  Level Houston Center
Sat 05:41:49 PM 28.3900 -88.0253 100° East 483 556 39,000  Level Houston Center
Sat 05:42:51 PM 28.3636 -87.8772 101° East 481 554 39,000  Level Houston Center
Sat 05:43:52 PM 28.3386 -87.7283 101° East 482 555 39,000  Level Houston Center
Sat 05:44:54 PM 28.3167 -87.5792 99° East 479 551 39,000  Level Houston Center
Sat 05:45:55 PM 28.2889 -87.3994 100° East 484 557 39,000  Level Houston Center
Sat 05:46:57 PM 28.2658 -87.2503 100° East 481 554 39,000  Level Houston Center
Sat 05:47:58 PM 28.2417 -87.1019 100° East 481 554 39,000  Level Houston Center
Sat 05:48:21 PM 28.2314 -87.0361 100° East 481 554 39,000  Level Jacksonville Center
Sat 05:49:21 PM 28.2089 -86.8917 100° East 474 545 39,000  Level Jacksonville Center
Sat 05:50:21 PM 28.1842 -86.7400 100° East 474 545 39,000  Level Jacksonville Center
Sat 05:51:21 PM 28.1614 -86.5956 100° East 474 545 39,000  Level Jacksonville Center
Sat 05:52:21 PM 28.1364 -86.4464 101° East 474 545 39,000  Level Jacksonville Center
Sat 05:53:21 PM 28.1133 -86.2950 100° East 474 545 39,000  Level Jacksonville Center
Sat 05:54:21 PM 28.0878 -86.1483 101° East 468 539 39,000  Level Jacksonville Center
Sat 05:55:21 PM 28.0625 -85.9947 101° East 473 544 39,000  Level Jacksonville Center
Sat 05:56:58 PM 28.0261 -85.7686 100° East 487 560 39,000  Level Miami Center
Sat 05:57:58 PM 27.9978 -85.6161 102° East 492 566 39,000  Level Miami Center
Sat 05:58:58 PM 27.9753 -85.4736 100° East 481 554 39,000  Level Miami Center
Sat 05:59:58 PM 27.9469 -85.3214 102° East 480 552 39,000  Level Miami Center
Sat 06:00:58 PM 27.9344 -85.1750 95° East 480 552 39,000  Level Miami Center
Sat 06:01:58 PM 27.9289 -85.0222 92° East 475 547 39,000 -300 Level Miami Center
Sat 06:02:58 PM 27.9236 -84.8553 92° East 480 552 38,400 -750 Descending Miami Center
Sat 06:03:58 PM 27.9172 -84.7044 93° East 480 552 37,500 -950 Descending Miami Center
Sat 06:04:58 PM 27.9131 -84.5542 92° East 480 552 36,500 -750 Descending Miami Center
Sat 06:05:58 PM 27.9019 -84.4056 95° East 480 552 36,000 -250 Descending Miami Center
Sat 06:06:58 PM 27.8975 -84.2528 92° East 480 552 36,000  Level Miami Center
Sat 06:07:58 PM 27.8947 -84.1025 91° East 480 552 36,000  Level Miami Center
Sat 06:08:58 PM 27.8897 -83.9519 92° East 480 552 36,000 -50 Level Miami Center
Sat 06:09:58 PM 27.8825 -83.8036 93° East 480 552 35,900 -2,250 Descending Miami Center
Sat 06:10:58 PM 27.8750 -83.6553 93° East 480 552 31,500 -3,900 Descending Miami Center
Sat 06:11:58 PM 27.8714 -83.5050 92° East 480 552 28,100 -3,200 Descending Miami Center
Sat 06:12:58 PM 27.8633 -83.3661 94° East 466 536 25,100 -2,050 Descending Miami Center
Sat 06:13:58 PM 27.8583 -83.2414 93° East 431 496 24,000 -550 Descending Miami Center
Sat 06:14:58 PM 27.8511 -83.1214 94° East 406 467 24,000 -50 Level Miami Center
Sat 06:15:58 PM 27.8483 -82.9944 91° East 401 461 23,900 -500 Descending Miami Center
Sat 06:16:58 PM 27.8428 -82.8792 93° East 401 461 23,000 -950 Descending Miami Center
Sat 06:17:58 PM 27.8333 -82.7519 95° East 406 467 22,000 -1,000 Descending Miami Center
Sat 06:18:58 PM 27.8322 -82.6275 91° East 406 467 21,000 -1,000 Descending Miami Center
Sat 06:19:58 PM 27.8331 -82.5008 90° East 406 467 20,000 -1,000 Descending Miami Center
Sat 06:20:58 PM 27.8667 -82.3853 72° East 395 455 19,000 -1,050 Descending Miami Center
Sat 06:21:58 PM 27.9089 -82.2675 68° East 385 443 17,900 -1,326 Descending Miami Center
Sat 06:24:08 PM 27.9833 -82.0167 71° East 356 410 14,800 -1,476 Descending Orlando TRACON
Sat 06:25:09 PM 28.0333 -81.9333 56° Northeast 344 396 13,200 -893 Descending Orlando TRACON
Sat 06:26:09 PM 28.0667 -81.8500 66° East 304 350 13,000 -550 Descending Orlando TRACON
Sat 06:27:09 PM 28.1167 -81.7667 56° Northeast 294 338 12,100 -1,105 Descending Orlando TRACON
Sat 06:28:03 PM 28.1500 -81.6833 66° East 296 341 10,900 -1,550 Descending Orlando TRACON
Sat 06:29:09 PM 28.1667 -81.6000 77° East 273 314 9,000 -1,571 Descending Orlando TRACON
Sat 06:30:09 PM 28.1833 -81.5167 77° East 253 291 7,600 -1,500 Descending Orlando TRACON
Sat 06:31:09 PM 28.2000 -81.4500 74° East 232 267 6,000 -1,579 Descending Orlando TRACON
Sat 06:32:03 PM 28.2333 -81.4000 53° Northeast 222 255 4,600 -1,474 Descending Orlando TRACON
Sat 06:33:03 PM 28.2833 -81.3500 41° Northeast 218 251 3,200 -1,368 Descending Orlando TRACON
Sat 06:33:57 PM 28.3167 -81.3333 24° Northeast 185 213 2,000 -1,150 Descending Orlando TRACON
Sat 06:35:03 PM 28.3667 -81.3167 16° North 143 165 900 -818 Descending Orlando TRACON
Sat 06:36:09 PM 28.4167 -81.3167 360° North 129 148 200 -636 Descending Orlando TRACON

Login

Don't have an account? Register now (free) for customized features, flight alerts, and more!